Terminal Aerodrome Forecast
Issued by NWS Sioux Falls, SD

Home | Current Version | Previous Version | Text Only | Print | Product List | Glossary On
Versions: 1 2 3 4 5 6 7 8 9 10 11 12 13 14 15 16 17
773
FTUS43 KFSD 191132
TAFFSD
TAF
KFSD 191132Z 1912/2012 10007KT P6SM FEW040
      TEMPO 1912/1913 BKN007
     FM191300 11007KT P6SM BKN070
     FM192200 16014KT P6SM SCT200
     FM200100 16012KT P6SM VCTS SCT060CB SCT200
     FM200600 13008KT P6SM BKN130
     FM201100 06008KT P6SM BKN050=

USA.gov is the U.S. government's official web portal to all federal, state and local government web resources and services.